createdAt,value
2023-02-19T00:01:45.643Z,9.70
2023-02-19T00:04:17.846Z,9.70
2023-02-19T00:06:48.208Z,9.70
2023-02-19T00:09:16.734Z,9.70
2023-02-19T00:11:44.268Z,9.70
2023-02-19T00:14:14.795Z,9.70
2023-02-19T00:16:41.786Z,9.70
2023-02-19T00:19:16.954Z,9.70
2023-02-19T00:21:47.448Z,9.70
2023-02-19T00:24:16.976Z,9.70
2023-02-19T00:26:44.934Z,9.70
2023-02-19T00:29:17.683Z,9.70
2023-02-19T00:31:45.424Z,9.70
2023-02-19T00:34:13.697Z,9.70
2023-02-19T00:36:41.733Z,9.60
2023-02-19T00:39:10.882Z,9.60
2023-02-19T00:41:37.944Z,9.60
2023-02-19T00:44:07.178Z,9.60
2023-02-19T00:46:38.944Z,9.60
2023-02-19T00:49:08.294Z,9.60
2023-02-19T00:51:38.805Z,9.60
2023-02-19T00:54:06.261Z,9.70
2023-02-19T00:56:34.074Z,9.70
2023-02-19T00:59:01.202Z,9.70
2023-02-19T01:01:27.974Z,9.70
2023-02-19T01:03:54.881Z,9.60
2023-02-19T01:06:22.522Z,9.70
2023-02-19T01:08:53.572Z,9.70
2023-02-19T01:11:20.468Z,9.70
2023-02-19T01:13:48.004Z,9.70
2023-02-19T01:16:18.932Z,9.70
2023-02-19T01:18:47.650Z,9.70
2023-02-19T01:21:22.082Z,9.60
2023-02-19T01:23:50.266Z,9.60
2023-02-19T01:26:22.538Z,9.60
2023-02-19T01:28:49.514Z,9.70
2023-02-19T01:31:21.839Z,9.70
2023-02-19T01:33:51.124Z,9.70
2023-02-19T01:36:18.700Z,9.70
2023-02-19T01:38:45.846Z,9.70
2023-02-19T01:41:17.613Z,9.70
2023-02-19T01:43:57.861Z,9.70
2023-02-19T01:46:39.511Z,9.70
2023-02-19T01:49:18.621Z,9.70
2023-02-19T01:51:49.334Z,9.70
2023-02-19T01:54:22.688Z,9.70
2023-02-19T01:56:50.330Z,9.70
2023-02-19T01:59:19.194Z,9.70
2023-02-19T02:01:45.994Z,9.70
2023-02-19T02:04:14.548Z,9.70
2023-02-19T02:06:45.765Z,9.70
2023-02-19T02:09:31.602Z,9.70
2023-02-19T02:11:58.493Z,9.70
2023-02-19T02:14:28.956Z,9.70
2023-02-19T02:17:07.089Z,9.60
2023-02-19T02:20:06.048Z,9.60
2023-02-19T02:23:02.446Z,9.60
2023-02-19T02:25:59.044Z,9.60
2023-02-19T02:28:59.883Z,9.60
2023-02-19T02:31:33.619Z,9.60
2023-02-19T02:34:15.680Z,9.60
2023-02-19T02:36:45.838Z,9.60
2023-02-19T02:39:18.826Z,9.60
2023-02-19T02:42:18.073Z,9.60
2023-02-19T02:45:16.382Z,9.60
2023-02-19T02:47:53.022Z,9.60
2023-02-19T02:50:25.137Z,9.60
2023-02-19T02:53:19.364Z,9.60
2023-02-19T02:55:51.732Z,9.60
2023-02-19T02:58:20.536Z,9.60
2023-02-19T03:01:11.664Z,9.50
2023-02-19T03:03:41.212Z,9.60
2023-02-19T03:06:13.962Z,9.60
2023-02-19T03:08:53.830Z,9.50
2023-02-19T03:11:39.362Z,9.50
2023-02-19T03:14:33.928Z,9.60
2023-02-19T03:17:26.598Z,9.50
2023-02-19T03:19:56.463Z,9.50
2023-02-19T03:22:29.926Z,9.50
2023-02-19T03:25:25.604Z,9.50
2023-02-19T03:27:54.469Z,9.50
2023-02-19T03:30:25.314Z,9.50
2023-02-19T03:33:09.653Z,9.50
2023-02-19T03:36:03.179Z,9.50
2023-02-19T03:38:39.955Z,9.50
2023-02-19T03:41:24.071Z,9.50
2023-02-19T03:44:03.174Z,9.40
2023-02-19T03:46:48.164Z,9.50
2023-02-19T03:49:44.011Z,9.40
2023-02-19T03:52:21.888Z,9.40
2023-02-19T03:55:05.900Z,9.40
2023-02-19T03:57:55.218Z,9.40
2023-02-19T04:00:35.826Z,9.40
2023-02-19T04:03:20.196Z,9.40
2023-02-19T04:05:58.321Z,9.40
2023-02-19T04:08:26.415Z,9.40
2023-02-19T04:11:00.477Z,9.30
2023-02-19T04:13:34.384Z,9.30
2023-02-19T04:16:06.614Z,9.30
2023-02-19T04:18:38.275Z,9.30
2023-02-19T04:21:07.372Z,9.30
2023-02-19T04:23:40.521Z,9.30
2023-02-19T04:26:09.137Z,9.30
2023-02-19T04:28:41.503Z,9.30
2023-02-19T04:31:08.699Z,9.30
2023-02-19T04:33:38.026Z,9.30
2023-02-19T04:36:05.100Z,9.30
2023-02-19T04:38:31.741Z,9.30
2023-02-19T04:40:58.437Z,9.20
2023-02-19T04:43:25.116Z,9.20
2023-02-19T04:45:51.813Z,9.30
2023-02-19T04:48:18.758Z,9.30
2023-02-19T04:50:45.517Z,9.30
2023-02-19T04:53:12.248Z,9.30
2023-02-19T04:55:39.795Z,9.30
2023-02-19T04:58:06.555Z,9.30
2023-02-19T05:00:34.044Z,9.30
2023-02-19T05:03:01.118Z,9.30
2023-02-19T05:05:28.893Z,9.30
2023-02-19T05:07:55.630Z,9.30
2023-02-19T05:10:22.417Z,9.30
2023-02-19T05:12:58.004Z,9.30
2023-02-19T05:15:30.419Z,9.30
2023-02-19T05:17:57.145Z,9.30
2023-02-19T05:20:25.024Z,9.30
2023-02-19T05:22:51.793Z,9.30
2023-02-19T05:25:18.517Z,9.30
2023-02-19T05:27:48.004Z,9.30
2023-02-19T05:30:14.688Z,9.30
2023-02-19T05:32:41.434Z,9.30
2023-02-19T05:35:08.278Z,9.30
2023-02-19T05:37:34.913Z,9.30
2023-02-19T05:40:01.625Z,9.30
2023-02-19T05:42:28.406Z,9.30
2023-02-19T05:44:55.090Z,9.30
2023-02-19T05:47:21.836Z,9.30
2023-02-19T05:49:48.570Z,9.20
2023-02-19T05:52:15.274Z,9.20
2023-02-19T05:54:42.025Z,9.20
2023-02-19T05:57:12.076Z,9.20
2023-02-19T05:59:38.720Z,9.20
2023-02-19T06:02:05.431Z,9.20
2023-02-19T06:04:32.144Z,9.30
2023-02-19T06:06:58.845Z,9.20
2023-02-19T06:09:25.522Z,9.20
2023-02-19T06:11:52.649Z,9.20
2023-02-19T06:14:19.333Z,9.20
2023-02-19T06:16:45.997Z,9.20
2023-02-19T06:19:12.712Z,9.20
2023-02-19T06:21:39.385Z,9.20
2023-02-19T06:24:07.699Z,9.20
2023-02-19T06:26:34.465Z,9.20
2023-02-19T06:29:01.244Z,9.20
2023-02-19T06:31:28.139Z,9.20
2023-02-19T06:33:55.332Z,9.10
2023-02-19T06:36:22.763Z,9.10
2023-02-19T06:38:49.483Z,9.10
2023-02-19T06:41:16.448Z,9.00
2023-02-19T06:43:43.391Z,9.00
2023-02-19T06:46:11.836Z,9.00
2023-02-19T06:48:43.156Z,9.00
2023-02-19T06:51:17.360Z,8.90
2023-02-19T06:53:44.113Z,8.90
2023-02-19T06:56:38.303Z,8.90
2023-02-19T06:59:15.046Z,8.90
2023-02-19T07:01:42.005Z,8.90
2023-02-19T07:04:09.046Z,8.80
2023-02-19T07:06:36.437Z,8.90
2023-02-19T07:09:05.364Z,8.90
2023-02-19T07:11:34.243Z,8.90
2023-02-19T07:14:03.691Z,9.00
2023-02-19T07:16:31.164Z,8.90
2023-02-19T07:18:59.099Z,9.00
2023-02-19T07:21:27.236Z,9.00
2023-02-19T07:23:55.945Z,9.00
2023-02-19T07:26:23.446Z,8.90
2023-02-19T07:28:51.464Z,9.00
2023-02-19T07:31:20.288Z,9.00
2023-02-19T07:33:48.124Z,9.00
2023-02-19T07:36:17.781Z,9.00
2023-02-19T07:38:45.070Z,9.00
2023-02-19T07:41:12.363Z,9.00
2023-02-19T07:43:40.318Z,9.00
2023-02-19T07:46:09.670Z,9.00
2023-02-19T07:48:37.565Z,9.00
2023-02-19T07:51:06.047Z,9.00
2023-02-19T07:53:37.502Z,9.00
2023-02-19T07:56:06.603Z,9.00
2023-02-19T07:58:34.259Z,9.00
2023-02-19T08:01:16.032Z,9.10
2023-02-19T08:03:43.626Z,9.10
2023-02-19T08:06:13.260Z,9.10
2023-02-19T08:08:40.513Z,9.10
2023-02-19T08:11:26.387Z,9.10
2023-02-19T08:13:59.249Z,9.10
2023-02-19T08:16:42.160Z,9.10
2023-02-19T08:19:09.509Z,9.10
2023-02-19T08:21:36.274Z,9.10
2023-02-19T08:24:03.044Z,9.10
2023-02-19T08:26:29.752Z,9.10
2023-02-19T08:28:56.543Z,9.10
2023-02-19T08:31:23.327Z,9.20
2023-02-19T08:33:50.154Z,9.20
2023-02-19T08:36:17.049Z,9.20
2023-02-19T08:38:43.821Z,9.20
2023-02-19T08:41:13.814Z,9.20
2023-02-19T08:43:41.957Z,9.20
2023-02-19T08:46:10.440Z,9.30
2023-02-19T08:48:38.472Z,9.30
2023-02-19T08:51:08.403Z,9.30
2023-02-19T08:53:37.260Z,9.30
2023-02-19T08:56:15.913Z,9.30
2023-02-19T08:58:42.847Z,9.30
2023-02-19T09:01:12.482Z,9.30
2023-02-19T09:03:39.871Z,9.30
2023-02-19T09:06:06.906Z,9.30
2023-02-19T09:08:33.625Z,9.40
2023-02-19T09:11:02.171Z,9.50
2023-02-19T09:13:30.063Z,9.50
2023-02-19T09:15:57.276Z,9.50
2023-02-19T09:18:25.840Z,9.50
2023-02-19T09:20:52.700Z,9.50
2023-02-19T09:23:22.471Z,9.60
2023-02-19T09:25:49.369Z,9.60
2023-02-19T09:28:16.878Z,9.60
2023-02-19T09:30:43.708Z,9.70
2023-02-19T09:33:10.451Z,9.70
2023-02-19T09:35:40.562Z,9.70
2023-02-19T09:38:07.271Z,9.70
2023-02-19T09:40:36.535Z,9.80
2023-02-19T09:43:09.970Z,9.70
2023-02-19T09:45:38.121Z,9.70
2023-02-19T09:48:06.205Z,9.70
2023-02-19T09:50:38.698Z,9.70
2023-02-19T09:53:15.347Z,9.70
2023-02-19T09:55:46.955Z,9.70
2023-02-19T09:58:30.587Z,9.70
2023-02-19T10:01:01.005Z,9.60
2023-02-19T10:03:34.468Z,9.60
2023-02-19T10:06:08.212Z,9.60
2023-02-19T10:08:37.843Z,9.60
2023-02-19T10:11:06.141Z,9.70
2023-02-19T10:13:42.743Z,9.70
2023-02-19T10:16:33.500Z,9.80
2023-02-19T10:19:01.013Z,9.80
2023-02-19T10:21:28.272Z,9.70
2023-02-19T10:24:00.510Z,9.80
2023-02-19T10:26:29.853Z,9.80
2023-02-19T10:29:24.525Z,9.80
2023-02-19T10:32:17.061Z,9.70
2023-02-19T10:34:43.882Z,9.70
2023-02-19T10:37:18.508Z,9.60
2023-02-19T10:39:50.005Z,9.60
2023-02-19T10:42:22.418Z,9.60
2023-02-19T10:44:58.450Z,9.50
2023-02-19T10:47:27.144Z,9.50
2023-02-19T10:49:58.853Z,9.40
2023-02-19T10:52:36.530Z,9.40
2023-02-19T10:55:26.363Z,9.30
2023-02-19T10:57:55.081Z,9.30
2023-02-19T11:00:26.923Z,9.30
2023-02-19T11:03:14.572Z,9.30
2023-02-19T11:05:53.209Z,9.30
2023-02-19T11:08:24.323Z,9.30
2023-02-19T11:10:51.366Z,9.30
2023-02-19T11:13:32.131Z,9.30
2023-02-19T11:15:59.884Z,9.30
2023-02-19T11:18:30.414Z,9.30
2023-02-19T11:21:00.090Z,9.30
2023-02-19T11:23:45.868Z,9.30
2023-02-19T11:26:25.102Z,9.30
2023-02-19T11:29:00.399Z,9.30
2023-02-19T11:31:34.165Z,9.30
2023-02-19T11:34:21.412Z,9.30
2023-02-19T11:37:14.116Z,9.20
2023-02-19T11:39:49.352Z,9.30
2023-02-19T11:42:40.621Z,9.30
2023-02-19T11:45:16.605Z,9.30
2023-02-19T11:47:46.459Z,9.40
2023-02-19T11:50:20.344Z,9.50
2023-02-19T11:53:22.531Z,9.50
2023-02-19T11:55:58.799Z,9.60
2023-02-19T11:58:28.412Z,9.60
2023-02-19T12:01:39.901Z,9.60
2023-02-19T12:04:31.410Z,9.60
2023-02-19T12:07:52.488Z,9.50
2023-02-19T12:10:22.119Z,9.50
2023-02-19T12:13:10.073Z,9.60
2023-02-19T12:16:09.397Z,9.60
2023-02-19T12:18:36.092Z,9.50
2023-02-19T12:21:29.396Z,9.50
2023-02-19T12:23:59.125Z,9.50
2023-02-19T12:26:47.853Z,9.50
2023-02-19T12:29:23.598Z,9.50
2023-02-19T12:32:17.649Z,9.60
2023-02-19T12:35:19.627Z,9.50
2023-02-19T12:38:19.968Z,9.50
2023-02-19T12:41:13.078Z,9.40
2023-02-19T12:43:46.910Z,9.30
2023-02-19T12:46:22.957Z,9.20
2023-02-19T12:49:31.753Z,9.10
2023-02-19T12:52:26.372Z,8.80
2023-02-19T12:54:55.993Z,8.80
2023-02-19T12:57:29.737Z,8.80
2023-02-19T13:00:20.955Z,8.90
2023-02-19T13:03:11.024Z,8.80
2023-02-19T13:05:49.422Z,8.80
2023-02-19T13:08:23.597Z,8.80
2023-02-19T13:10:58.549Z,8.70
2023-02-19T13:13:38.549Z,8.70
2023-02-19T13:16:36.051Z,8.70
2023-02-19T13:19:04.959Z,8.70
2023-02-19T13:21:58.836Z,8.60
2023-02-19T13:24:30.218Z,8.60
2023-02-19T13:27:30.962Z,8.70
2023-02-19T13:30:26.840Z,8.60
2023-02-19T13:33:02.559Z,8.70
2023-02-19T13:35:50.723Z,8.70
2023-02-19T13:38:17.933Z,8.80
2023-02-19T13:40:55.779Z,8.70
2023-02-19T13:43:34.746Z,8.70
2023-02-19T13:46:09.663Z,8.60
2023-02-19T13:48:39.916Z,8.40
2023-02-19T13:51:29.277Z,8.30
2023-02-19T13:53:55.900Z,8.30
2023-02-19T13:56:31.550Z,8.30
2023-02-19T13:59:22.651Z,8.30
2023-02-19T14:01:58.141Z,8.30
2023-02-19T14:04:53.944Z,8.40
2023-02-19T14:07:34.717Z,8.40
2023-02-19T14:10:02.389Z,8.40
2023-02-19T14:12:35.094Z,8.30
2023-02-19T14:15:41.492Z,8.40
2023-02-19T14:18:43.840Z,8.40
2023-02-19T14:21:28.312Z,8.40
2023-02-19T14:23:58.014Z,8.40
2023-02-19T14:26:26.665Z,8.40
2023-02-19T14:28:54.398Z,8.50
2023-02-19T14:31:31.517Z,8.50
2023-02-19T14:34:03.329Z,8.60
2023-02-19T14:36:56.554Z,8.50
2023-02-19T14:39:33.088Z,8.50
2023-02-19T14:42:01.441Z,8.50
2023-02-19T14:44:31.478Z,8.50
2023-02-19T14:47:09.523Z,8.60
2023-02-19T14:49:47.684Z,8.60
2023-02-19T14:52:32.329Z,8.60
2023-02-19T14:55:03.857Z,8.60
2023-02-19T14:57:36.547Z,8.60
2023-02-19T15:00:30.832Z,8.70
2023-02-19T15:02:59.664Z,8.70
2023-02-19T15:05:27.929Z,8.70
2023-02-19T15:07:58.741Z,8.70
2023-02-19T15:10:28.717Z,8.70
2023-02-19T15:12:59.957Z,8.70
2023-02-19T15:15:29.618Z,8.70
2023-02-19T15:17:57.895Z,8.70
2023-02-19T15:20:27.848Z,8.60
2023-02-19T15:22:56.336Z,8.60
2023-02-19T15:25:26.953Z,8.60
2023-02-19T15:27:53.623Z,8.60
2023-02-19T15:30:31.728Z,8.60
2023-02-19T15:32:59.904Z,8.60
2023-02-19T15:35:28.896Z,8.60
2023-02-19T15:37:55.965Z,8.60
2023-02-19T15:40:30.016Z,8.50
2023-02-19T15:42:58.018Z,8.50
2023-02-19T15:45:31.116Z,8.40
2023-02-19T15:48:14.383Z,8.40
2023-02-19T15:50:47.866Z,8.40
2023-02-19T15:53:29.626Z,8.40
2023-02-19T15:56:27.991Z,8.40
2023-02-19T15:58:59.211Z,8.30
2023-02-19T16:01:28.654Z,8.30
2023-02-19T16:03:56.239Z,8.30
2023-02-19T16:06:26.304Z,8.30
2023-02-19T16:08:52.938Z,8.30
2023-02-19T16:11:22.644Z,8.20
2023-02-19T16:13:52.776Z,8.20
2023-02-19T16:16:36.793Z,8.20
2023-02-19T16:19:03.590Z,8.20
2023-02-19T16:21:30.378Z,8.20
2023-02-19T16:24:05.290Z,8.20
2023-02-19T16:26:43.401Z,8.20
2023-02-19T16:29:28.316Z,8.20
2023-02-19T16:32:04.154Z,8.10
2023-02-19T16:34:42.585Z,8.10
2023-02-19T16:37:33.937Z,8.00
2023-02-19T16:40:09.581Z,8.00
2023-02-19T16:42:56.724Z,8.00
2023-02-19T16:45:25.455Z,8.00
2023-02-19T16:47:56.289Z,7.90
2023-02-19T16:50:26.413Z,7.90
2023-02-19T16:52:55.535Z,7.90
2023-02-19T16:55:22.864Z,7.90
2023-02-19T16:58:01.306Z,7.90
2023-02-19T17:00:34.922Z,7.80
2023-02-19T17:03:13.938Z,7.80
2023-02-19T17:05:41.923Z,7.80
2023-02-19T17:08:34.743Z,7.80
2023-02-19T17:11:04.045Z,7.80
2023-02-19T17:13:31.045Z,7.80
2023-02-19T17:16:00.837Z,7.80
2023-02-19T17:18:27.658Z,7.80
2023-02-19T17:21:15.512Z,7.70
2023-02-19T17:26:35.054Z,7.80
2023-02-19T17:29:04.997Z,7.70
2023-02-19T17:31:32.551Z,7.70
2023-02-19T17:33:59.645Z,7.70
2023-02-19T17:36:30.565Z,7.70
2023-02-19T17:39:03.607Z,7.70
2023-02-19T17:41:30.499Z,7.70
2023-02-19T17:43:57.248Z,7.70
2023-02-19T17:46:26.211Z,7.70
2023-02-19T17:48:53.959Z,7.70
2023-02-19T17:51:23.971Z,7.60
2023-02-19T17:53:50.862Z,7.60
2023-02-19T17:56:23.123Z,7.60
2023-02-19T17:58:49.920Z,7.60
2023-02-19T18:01:19.520Z,7.60
2023-02-19T18:03:49.123Z,7.50
2023-02-19T18:06:16.072Z,7.50
2023-02-19T18:08:51.333Z,7.50
2023-02-19T18:11:18.302Z,7.50
2023-02-19T18:13:45.298Z,7.50
2023-02-19T18:16:12.179Z,7.50
2023-02-19T18:18:40.247Z,7.50
2023-02-19T18:21:12.729Z,7.50
2023-02-19T18:23:39.700Z,7.40
2023-02-19T18:26:11.921Z,7.40
2023-02-19T18:28:38.869Z,7.40
2023-02-19T18:31:07.763Z,7.40
2023-02-19T18:33:36.931Z,7.30
2023-02-19T18:36:04.716Z,7.40
2023-02-19T18:38:31.495Z,7.40
2023-02-19T18:41:00.495Z,7.40
2023-02-19T18:43:27.238Z,7.30
2023-02-19T18:45:57.623Z,7.20
2023-02-19T18:48:24.320Z,7.20
2023-02-19T18:50:51.044Z,7.20
2023-02-19T18:53:17.807Z,7.20
2023-02-19T18:55:44.476Z,7.20
2023-02-19T18:58:11.168Z,7.10
2023-02-19T19:00:37.904Z,7.10
2023-02-19T19:03:05.093Z,7.10
2023-02-19T19:05:31.920Z,7.00
2023-02-19T19:08:01.889Z,7.00
2023-02-19T19:10:30.086Z,7.00
2023-02-19T19:12:58.355Z,7.00
2023-02-19T19:15:26.061Z,7.00
2023-02-19T19:17:53.223Z,7.00
2023-02-19T19:20:23.743Z,6.90
2023-02-19T19:22:54.597Z,6.90
2023-02-19T19:25:23.373Z,6.80
2023-02-19T19:27:54.378Z,6.80
2023-02-19T19:30:21.374Z,6.70
2023-02-19T19:32:52.106Z,6.70
2023-02-19T19:35:20.471Z,6.60
2023-02-19T19:37:47.476Z,6.60
2023-02-19T19:40:17.014Z,6.60
2023-02-19T19:42:44.658Z,6.50
2023-02-19T19:45:13.665Z,6.50
2023-02-19T19:47:40.412Z,6.50
2023-02-19T19:50:07.429Z,6.40
2023-02-19T19:52:37.240Z,6.40
2023-02-19T19:55:09.700Z,6.40
2023-02-19T19:57:37.169Z,6.40
2023-02-19T20:00:05.620Z,6.40
2023-02-19T20:02:39.157Z,6.30
2023-02-19T20:05:07.355Z,6.30
2023-02-19T20:07:35.214Z,6.30
2023-02-19T20:10:02.250Z,6.30
2023-02-19T20:12:30.986Z,6.20
2023-02-19T20:14:57.717Z,6.20
2023-02-19T20:17:27.314Z,6.20
2023-02-19T20:19:54.304Z,6.20
2023-02-19T20:22:22.327Z,6.10
2023-02-19T20:24:53.335Z,6.10
2023-02-19T20:27:21.290Z,6.00
2023-02-19T20:29:48.590Z,6.00
2023-02-19T20:32:18.531Z,6.00
2023-02-19T20:34:46.178Z,6.00
2023-02-19T20:37:31.657Z,5.90
2023-02-19T20:39:59.643Z,5.90
2023-02-19T20:42:29.122Z,5.90
2023-02-19T20:44:56.453Z,5.90
2023-02-19T20:47:23.354Z,5.90
2023-02-19T20:49:51.584Z,5.90
2023-02-19T20:52:20.678Z,5.90
2023-02-19T20:54:47.478Z,5.80
2023-02-19T20:57:14.547Z,5.80
2023-02-19T20:59:41.359Z,5.80
2023-02-19T21:02:19.973Z,5.70
2023-02-19T21:04:50.201Z,5.80
2023-02-19T21:07:17.288Z,5.70
2023-02-19T21:09:44.146Z,5.70
2023-02-19T21:12:10.951Z,5.70
2023-02-19T21:14:37.725Z,5.70
2023-02-19T21:17:05.493Z,5.70
2023-02-19T21:19:32.210Z,5.60
2023-02-19T21:21:58.940Z,5.60
2023-02-19T21:24:25.713Z,5.60
2023-02-19T21:26:52.421Z,5.50
2023-02-19T21:29:21.543Z,5.50
2023-02-19T21:31:51.227Z,5.50
2023-02-19T21:34:24.406Z,5.50
2023-02-19T21:36:51.262Z,5.50
2023-02-19T21:39:24.525Z,5.50
2023-02-19T21:41:51.862Z,5.50
2023-02-19T21:44:20.894Z,5.50
2023-02-19T21:46:48.347Z,5.40
2023-02-19T21:49:15.096Z,5.40
2023-02-19T21:51:43.692Z,5.40
2023-02-19T21:54:16.361Z,5.40
2023-02-19T21:56:42.935Z,5.40
2023-02-19T21:59:10.090Z,5.30
2023-02-19T22:01:43.042Z,5.30
2023-02-19T22:04:13.876Z,5.30
2023-02-19T22:06:40.808Z,5.30
2023-02-19T22:09:08.898Z,5.30
2023-02-19T22:11:35.870Z,5.30
2023-02-19T22:14:02.726Z,5.30
2023-02-19T22:16:29.470Z,5.30
2023-02-19T22:18:58.733Z,5.30
2023-02-19T22:21:28.762Z,5.30
2023-02-19T22:23:55.495Z,5.30
2023-02-19T22:26:27.036Z,5.30
2023-02-19T22:28:55.509Z,5.30
2023-02-19T22:31:24.425Z,5.30
2023-02-19T22:33:51.863Z,5.30
2023-02-19T22:36:21.979Z,5.30
2023-02-19T22:38:49.582Z,5.30
2023-02-19T22:41:17.845Z,5.30
2023-02-19T22:43:45.094Z,5.30
2023-02-19T22:46:21.800Z,5.30
2023-02-19T22:48:48.677Z,5.30
2023-02-19T22:51:18.043Z,5.30
2023-02-19T22:53:53.434Z,5.30
2023-02-19T22:56:22.398Z,5.30
2023-02-19T22:58:49.442Z,5.30
2023-02-19T23:01:16.763Z,5.30
2023-02-19T23:03:52.378Z,5.30
2023-02-19T23:06:24.207Z,5.30
2023-02-19T23:08:52.248Z,5.30
2023-02-19T23:11:24.178Z,5.30
2023-02-19T23:13:51.099Z,5.40
2023-02-19T23:16:17.914Z,5.40
2023-02-19T23:18:45.022Z,5.40
2023-02-19T23:21:11.909Z,5.40
2023-02-19T23:23:44.968Z,5.40
2023-02-19T23:26:12.994Z,5.40
2023-02-19T23:28:41.237Z,5.40
2023-02-19T23:31:11.202Z,5.50
2023-02-19T23:33:38.115Z,5.50
2023-02-19T23:36:09.764Z,5.50
2023-02-19T23:38:36.714Z,5.50
2023-02-19T23:41:04.269Z,5.50
2023-02-19T23:43:30.993Z,5.60
2023-02-19T23:45:57.769Z,5.60
2023-02-19T23:48:24.523Z,5.60
2023-02-19T23:50:51.296Z,5.60
2023-02-19T23:53:18.081Z,5.70
2023-02-19T23:55:45.960Z,5.70
2023-02-19T23:58:12.700Z,5.70
